createdAt,value
2023-05-12T00:00:36.387Z,10.78
2023-05-12T00:03:04.531Z,10.74
2023-05-12T00:05:31.890Z,10.51
2023-05-12T00:07:58.976Z,10.58
2023-05-12T00:10:28.668Z,10.56
2023-05-12T00:12:55.893Z,10.51
2023-05-12T00:15:23.326Z,10.48
2023-05-12T00:17:52.530Z,10.40
2023-05-12T00:20:20.056Z,10.38
2023-05-12T00:22:47.410Z,10.37
2023-05-12T00:25:14.478Z,10.36
2023-05-12T00:27:41.556Z,10.36
2023-05-12T00:30:09.266Z,10.30
2023-05-12T00:32:36.545Z,10.34
2023-05-12T00:35:04.231Z,10.28
2023-05-12T00:37:31.714Z,10.35
2023-05-12T00:39:58.751Z,10.32
2023-05-12T00:42:25.769Z,10.35
2023-05-12T00:44:52.864Z,10.31
2023-05-12T00:47:20.759Z,10.28
2023-05-12T00:49:47.766Z,10.30
2023-05-12T00:52:14.833Z,10.34
2023-05-12T00:54:43.330Z,10.16
2023-05-12T00:57:11.680Z,10.23
2023-05-12T00:59:38.725Z,10.18
2023-05-12T01:02:07.458Z,10.24
2023-05-12T01:04:35.855Z,10.12
2023-05-12T01:07:05.816Z,10.12
2023-05-12T01:09:33.718Z,10.05
2023-05-12T01:12:01.115Z,10.00
2023-05-12T01:14:29.580Z,9.95
2023-05-12T01:17:00.259Z,10.09
2023-05-12T01:19:41.552Z,10.09
2023-05-12T01:22:12.442Z,9.95
2023-05-12T01:24:54.198Z,9.92
2023-05-12T01:27:24.105Z,9.98
2023-05-12T01:29:52.525Z,10.03
2023-05-12T01:32:20.799Z,9.98
2023-05-12T01:34:48.344Z,9.83
2023-05-12T01:37:16.202Z,9.93
2023-05-12T01:39:44.353Z,9.89
2023-05-12T01:42:17.679Z,9.72
2023-05-12T01:44:45.924Z,9.77
2023-05-12T01:47:16.008Z,9.74
2023-05-12T01:49:49.701Z,9.74
2023-05-12T01:52:17.457Z,9.73
2023-05-12T01:54:44.600Z,9.81
2023-05-12T01:57:12.891Z,9.74
2023-05-12T01:59:40.653Z,9.96
2023-05-12T02:02:08.323Z,9.95
2023-05-12T02:04:35.603Z,10.05
2023-05-12T02:07:02.691Z,10.08
2023-05-12T02:09:30.167Z,9.93
2023-05-12T02:12:02.398Z,10.07
2023-05-12T02:14:29.817Z,10.16
2023-05-12T02:16:57.635Z,10.23
2023-05-12T02:19:26.855Z,10.18
2023-05-12T02:22:00.771Z,10.17
2023-05-12T02:24:28.321Z,10.22
2023-05-12T02:26:55.513Z,10.29
2023-05-12T02:29:23.214Z,10.30
2023-05-12T02:31:50.391Z,10.25
2023-05-12T02:34:18.013Z,10.28
2023-05-12T02:36:45.103Z,10.31
2023-05-12T02:39:13.656Z,10.32
2023-05-12T02:41:41.324Z,10.37
2023-05-12T02:44:08.483Z,10.32
2023-05-12T02:46:36.068Z,10.37
2023-05-12T02:49:03.196Z,10.40
2023-05-12T02:51:31.948Z,10.39
2023-05-12T02:53:58.916Z,10.46
2023-05-12T02:56:26.208Z,10.39
2023-05-12T02:58:53.742Z,10.50
2023-05-12T03:01:21.332Z,10.47
2023-05-12T03:03:48.519Z,10.56
2023-05-12T03:06:15.881Z,10.59
2023-05-12T03:08:44.397Z,10.61
2023-05-12T03:11:11.790Z,10.54
2023-05-12T03:13:39.147Z,10.66
2023-05-12T03:16:07.139Z,10.67
2023-05-12T03:18:34.501Z,10.71
2023-05-12T03:21:01.626Z,10.70
2023-05-12T03:23:28.756Z,10.85
2023-05-12T03:25:55.823Z,10.90
2023-05-12T03:28:26.359Z,10.80
2023-05-12T03:30:54.260Z,10.93
2023-05-12T03:33:21.408Z,11.09
2023-05-12T03:35:50.860Z,11.15
2023-05-12T03:38:18.590Z,11.17
2023-05-12T03:40:52.611Z,11.24
2023-05-12T03:43:21.348Z,11.37
2023-05-12T03:45:49.335Z,11.44
2023-05-12T03:48:16.711Z,11.43
2023-05-12T03:50:43.728Z,11.51
2023-05-12T03:53:10.726Z,11.60
2023-05-12T03:55:37.844Z,11.67
2023-05-12T03:58:04.956Z,11.78
2023-05-12T04:00:33.037Z,11.90
2023-05-12T04:03:00.799Z,11.99
2023-05-12T04:05:27.866Z,12.19
2023-05-12T04:07:54.897Z,12.38
2023-05-12T04:10:22.418Z,12.63
2023-05-12T04:12:50.317Z,12.86
2023-05-12T04:15:17.838Z,13.17
2023-05-12T04:17:44.992Z,13.42
2023-05-12T04:20:13.071Z,13.84
2023-05-12T04:22:40.194Z,14.22
2023-05-12T04:25:07.632Z,14.53
2023-05-12T04:27:34.759Z,14.69
2023-05-12T04:30:01.926Z,15.01
2023-05-12T04:32:33.253Z,15.16
2023-05-12T04:35:00.913Z,15.39
2023-05-12T04:37:31.325Z,15.49
2023-05-12T04:39:58.341Z,15.69
2023-05-12T04:42:25.555Z,15.78
2023-05-12T04:44:52.705Z,16.05
2023-05-12T04:47:20.136Z,16.18
2023-05-12T04:49:47.286Z,16.38
2023-05-12T04:52:14.985Z,16.44
2023-05-12T04:54:41.999Z,16.81
2023-05-12T04:57:09.305Z,17.15
2023-05-12T04:59:36.911Z,17.38
2023-05-12T05:02:04.537Z,17.69
2023-05-12T05:04:31.592Z,17.83
2023-05-12T05:06:58.732Z,17.88
2023-05-12T05:09:26.020Z,17.93
2023-05-12T05:11:53.042Z,17.58
2023-05-12T05:14:20.805Z,17.23
2023-05-12T05:16:48.641Z,16.99
2023-05-12T05:19:22.870Z,17.05
2023-05-12T05:21:57.470Z,17.15
2023-05-12T05:24:24.645Z,17.07
2023-05-12T05:26:51.726Z,16.98
2023-05-12T05:29:19.507Z,16.82
2023-05-12T05:31:47.250Z,17.30
2023-05-12T05:34:14.856Z,17.67
2023-05-12T05:36:42.083Z,18.42
2023-05-12T05:39:10.610Z,19.02
2023-05-12T05:41:37.856Z,19.67
2023-05-12T05:44:05.940Z,20.16
2023-05-12T05:46:33.298Z,20.68
2023-05-12T05:49:00.498Z,21.01
2023-05-12T05:51:27.623Z,21.29
2023-05-12T05:53:54.689Z,21.36
2023-05-12T05:56:23.239Z,21.22
2023-05-12T05:58:50.926Z,21.26
2023-05-12T06:01:18.259Z,20.76
2023-05-12T06:03:45.667Z,20.27
2023-05-12T06:06:12.819Z,19.76
2023-05-12T06:08:39.899Z,19.40
2023-05-12T06:11:07.090Z,19.01
2023-05-12T06:13:34.163Z,18.64
2023-05-12T06:16:01.263Z,18.21
2023-05-12T06:18:28.419Z,18.14
2023-05-12T06:20:56.067Z,17.93
2023-05-12T06:23:23.264Z,17.90
2023-05-12T06:25:50.731Z,17.92
2023-05-12T06:28:17.888Z,17.99
2023-05-12T06:30:46.310Z,17.96
2023-05-12T06:33:13.349Z,17.80
2023-05-12T06:35:40.390Z,17.89
2023-05-12T06:38:07.599Z,17.92
2023-05-12T06:40:34.668Z,17.98
2023-05-12T06:43:01.697Z,18.16
2023-05-12T06:45:29.062Z,18.36
2023-05-12T06:47:59.718Z,18.73
2023-05-12T06:50:28.207Z,19.24
2023-05-12T06:52:55.205Z,19.80
2023-05-12T06:55:22.989Z,20.21
2023-05-12T06:57:55.754Z,20.46
2023-05-12T07:00:24.246Z,20.91
2023-05-12T07:02:52.220Z,21.25
2023-05-12T07:05:19.941Z,21.71
2023-05-12T07:07:47.180Z,21.96
2023-05-12T07:10:14.407Z,22.01
2023-05-12T07:12:41.585Z,22.23
2023-05-12T07:15:09.827Z,22.42
2023-05-12T07:17:37.036Z,22.73
2023-05-12T07:20:05.600Z,23.07
2023-05-12T07:22:32.887Z,23.16
2023-05-12T07:24:59.954Z,23.22
2023-05-12T07:27:27.141Z,23.30
2023-05-12T07:29:54.423Z,23.42
2023-05-12T07:32:21.520Z,23.43
2023-05-12T07:34:48.592Z,23.39
2023-05-12T07:37:15.712Z,23.36
2023-05-12T07:39:42.757Z,23.39
2023-05-12T07:42:09.769Z,23.30
2023-05-12T07:44:36.776Z,23.35
2023-05-12T07:47:03.968Z,23.71
2023-05-12T07:49:31.134Z,24.08
2023-05-12T07:51:58.252Z,24.40
2023-05-12T07:54:25.179Z,24.87
2023-05-12T07:56:52.494Z,25.29
2023-05-12T07:59:19.640Z,25.91
2023-05-12T08:01:46.752Z,26.53
2023-05-12T08:04:13.967Z,26.94
2023-05-12T08:06:41.239Z,27.46
2023-05-12T08:09:08.320Z,26.75
2023-05-12T08:11:35.392Z,26.93
2023-05-12T08:14:02.355Z,27.41
2023-05-12T08:16:29.514Z,27.56
2023-05-12T08:18:56.684Z,27.60
2023-05-12T08:21:24.106Z,27.68
2023-05-12T08:23:51.152Z,28.26
2023-05-12T08:26:18.301Z,28.57
2023-05-12T08:28:45.315Z,29.04
2023-05-12T08:31:12.674Z,29.31
2023-05-12T08:33:39.843Z,29.34
2023-05-12T08:36:07.072Z,29.59
2023-05-12T08:38:34.149Z,29.44
2023-05-12T08:41:39.873Z,28.98
2023-05-12T08:44:08.899Z,28.81
2023-05-12T08:46:36.169Z,28.80
2023-05-12T08:49:04.973Z,28.74
2023-05-12T08:51:33.393Z,28.79
2023-05-12T08:54:01.000Z,28.39
2023-05-12T08:58:59.577Z,28.24
2023-05-12T09:01:27.113Z,28.60
2023-05-12T09:03:54.307Z,28.51
2023-05-12T09:06:21.954Z,28.15
2023-05-12T09:08:49.268Z,28.31
2023-05-12T09:11:17.328Z,28.60
2023-05-12T09:14:18.810Z,28.56
2023-05-12T09:16:49.425Z,28.21
2023-05-12T09:19:22.667Z,28.19
2023-05-12T09:21:49.773Z,28.20
2023-05-12T09:24:16.773Z,27.96
2023-05-12T09:26:52.548Z,27.92
2023-05-12T09:29:30.043Z,28.08
2023-05-12T09:32:04.418Z,28.05
2023-05-12T09:34:38.516Z,27.64
2023-05-12T09:37:07.865Z,27.67
2023-05-12T09:39:36.316Z,27.61
2023-05-12T09:42:03.770Z,28.02
2023-05-12T09:44:32.542Z,28.63
2023-05-12T09:47:10.530Z,28.58
2023-05-12T09:49:38.507Z,28.33
2023-05-12T09:52:06.301Z,28.17
2023-05-12T09:54:34.615Z,28.54
2023-05-12T09:57:07.007Z,28.29
2023-05-12T09:59:36.264Z,28.39
2023-05-12T10:02:07.058Z,28.14
2023-05-12T10:04:53.240Z,28.39
2023-05-12T10:07:24.674Z,28.67
2023-05-12T10:09:52.909Z,29.08
2023-05-12T10:12:19.883Z,29.56
2023-05-12T10:14:48.512Z,30.03
2023-05-12T10:17:16.096Z,30.26
2023-05-12T10:19:44.699Z,30.78
2023-05-12T10:22:12.012Z,30.44
2023-05-12T10:24:41.098Z,29.68
2023-05-12T10:27:08.456Z,28.60
2023-05-12T10:29:37.790Z,27.99
2023-05-12T10:32:06.654Z,27.51
2023-05-12T10:34:37.125Z,26.74
2023-05-12T10:37:11.119Z,26.37
2023-05-12T10:39:47.838Z,26.39
2023-05-12T10:42:17.716Z,27.16
2023-05-12T10:44:54.722Z,27.52
2023-05-12T10:47:37.923Z,27.66
2023-05-12T10:50:05.760Z,27.62
2023-05-12T10:52:33.650Z,27.96
2023-05-12T10:55:02.276Z,28.84
2023-05-12T10:57:33.965Z,29.50
2023-05-12T11:00:02.858Z,30.09
2023-05-12T11:02:36.939Z,30.62
2023-05-12T11:05:17.448Z,30.68
2023-05-12T11:07:50.138Z,30.25
2023-05-12T11:10:18.245Z,29.54
2023-05-12T11:12:45.756Z,29.43
2023-05-12T11:15:13.727Z,29.94
2023-05-12T11:17:41.646Z,29.67
2023-05-12T11:20:12.294Z,29.57
2023-05-12T11:22:41.118Z,29.66
2023-05-12T11:25:12.643Z,29.92
2023-05-12T11:27:43.455Z,29.45
2023-05-12T11:30:11.305Z,28.92
2023-05-12T11:32:38.879Z,28.04
2023-05-12T11:35:10.175Z,27.31
2023-05-12T11:37:39.567Z,26.36
2023-05-12T11:40:21.104Z,25.67
2023-05-12T11:42:52.895Z,25.34
2023-05-12T11:45:28.989Z,25.11
2023-05-12T11:48:11.694Z,24.96
2023-05-12T11:50:41.224Z,24.97
2023-05-12T11:53:17.463Z,25.13
2023-05-12T11:56:02.753Z,25.43
2023-05-12T11:58:30.851Z,25.46
2023-05-12T12:01:10.191Z,25.26
2023-05-12T12:03:48.753Z,25.31
2023-05-12T12:06:16.461Z,25.15
2023-05-12T12:09:10.315Z,25.33
2023-05-12T12:11:37.426Z,25.98
2023-05-12T12:14:04.960Z,26.57
2023-05-12T12:16:32.589Z,27.50
2023-05-12T12:18:59.847Z,27.80
2023-05-12T12:21:27.130Z,28.34
2023-05-12T12:23:54.092Z,28.02
2023-05-12T12:26:21.739Z,27.18
2023-05-12T12:28:49.205Z,26.63
2023-05-12T12:31:16.943Z,27.44
2023-05-12T12:33:44.221Z,28.78
2023-05-12T12:36:11.388Z,30.28
2023-05-12T12:38:38.447Z,31.54
2023-05-12T12:41:07.094Z,31.83
2023-05-12T12:43:34.142Z,32.02
2023-05-12T12:46:01.199Z,31.95
2023-05-12T12:48:29.038Z,30.06
2023-05-12T12:50:56.268Z,29.16
2023-05-12T12:53:23.295Z,29.87
2023-05-12T12:55:50.268Z,30.32
2023-05-12T12:58:17.345Z,30.60
2023-05-12T13:00:44.476Z,30.19
2023-05-12T13:03:11.680Z,29.59
2023-05-12T13:05:39.048Z,28.78
2023-05-12T13:08:06.431Z,27.50
2023-05-12T13:10:33.699Z,26.70
2023-05-12T13:13:00.977Z,26.53
2023-05-12T13:15:28.140Z,26.48
2023-05-12T13:17:55.266Z,26.36
2023-05-12T13:20:22.463Z,26.85
2023-05-12T13:22:49.792Z,27.60
2023-05-12T13:25:17.075Z,28.55
2023-05-12T13:27:44.272Z,29.47
2023-05-12T13:30:13.769Z,30.37
2023-05-12T13:32:41.670Z,30.14
2023-05-12T13:35:09.457Z,29.72
2023-05-12T13:37:37.518Z,28.99
2023-05-12T13:40:04.985Z,28.51
2023-05-12T13:42:32.630Z,28.54
2023-05-12T13:44:59.813Z,28.60
2023-05-12T13:47:27.665Z,28.43
2023-05-12T13:49:56.619Z,27.85
2023-05-12T13:52:23.668Z,27.14
2023-05-12T13:54:51.382Z,27.04
2023-05-12T13:57:18.490Z,27.55
2023-05-12T13:59:45.582Z,28.08
2023-05-12T14:02:13.967Z,28.71
2023-05-12T14:04:41.223Z,28.88
2023-05-12T14:07:08.873Z,29.66
2023-05-12T14:09:36.367Z,30.02
2023-05-12T14:12:04.508Z,29.95
2023-05-12T14:14:31.797Z,29.48
2023-05-12T14:16:59.135Z,29.25
2023-05-12T14:19:26.160Z,29.59
2023-05-12T14:21:53.207Z,29.78
2023-05-12T14:24:20.553Z,29.53
2023-05-12T14:26:47.711Z,29.01
2023-05-12T14:29:14.841Z,28.49
2023-05-12T14:31:42.048Z,27.60
2023-05-12T14:34:09.459Z,26.65
2023-05-12T14:36:36.861Z,25.90
2023-05-12T14:39:04.098Z,25.67
2023-05-12T14:41:31.260Z,25.43
2023-05-12T14:43:58.863Z,24.87
2023-05-12T14:46:26.080Z,24.46
2023-05-12T14:48:53.280Z,23.97
2023-05-12T14:51:20.343Z,23.95
2023-05-12T14:53:47.398Z,24.03
2023-05-12T14:56:14.842Z,23.84
2023-05-12T14:58:41.852Z,23.70
2023-05-12T15:01:09.696Z,23.94
2023-05-12T15:03:37.115Z,23.98
2023-05-12T15:06:07.820Z,23.80
2023-05-12T15:08:35.550Z,23.70
2023-05-12T15:11:02.648Z,23.76
2023-05-12T15:13:29.751Z,23.73
2023-05-12T15:15:57.173Z,23.80
2023-05-12T15:18:24.655Z,23.67
2023-05-12T15:20:52.088Z,23.70
2023-05-12T15:23:19.280Z,23.54
2023-05-12T15:25:46.358Z,23.39
2023-05-12T15:28:13.780Z,23.31
2023-05-12T15:30:40.935Z,23.33
2023-05-12T15:33:08.174Z,23.45
2023-05-12T15:35:35.459Z,23.44
2023-05-12T15:38:03.165Z,23.33
2023-05-12T15:40:31.197Z,23.21
2023-05-12T15:42:58.598Z,23.20
2023-05-12T15:45:25.958Z,23.17
2023-05-12T15:47:53.276Z,23.14
2023-05-12T15:50:22.930Z,23.01
2023-05-12T15:52:51.194Z,22.84
2023-05-12T15:55:18.877Z,22.57
2023-05-12T15:57:47.871Z,22.46
2023-05-12T16:00:17.524Z,22.28
2023-05-12T16:02:44.728Z,22.21
2023-05-12T16:05:12.274Z,22.06
2023-05-12T16:07:39.687Z,21.98
2023-05-12T16:10:07.258Z,21.89
2023-05-12T16:12:34.653Z,21.77
2023-05-12T16:15:02.432Z,21.73
2023-05-12T16:17:34.331Z,21.69
2023-05-12T16:20:02.153Z,21.65
2023-05-12T16:22:32.042Z,21.47
2023-05-12T16:24:59.261Z,21.56
2023-05-12T16:27:27.011Z,21.39
2023-05-12T16:29:54.294Z,21.28
2023-05-12T16:32:21.487Z,21.21
2023-05-12T16:34:48.925Z,21.07
2023-05-12T16:37:16.004Z,21.08
2023-05-12T16:39:43.306Z,20.99
2023-05-12T16:42:10.780Z,21.00
2023-05-12T16:44:37.800Z,20.88
2023-05-12T16:47:05.865Z,20.85
2023-05-12T16:49:33.064Z,20.78
2023-05-12T16:52:00.201Z,20.81
2023-05-12T16:54:27.294Z,20.74
2023-05-12T16:56:56.577Z,20.70
2023-05-12T16:59:23.694Z,20.61
2023-05-12T17:01:51.025Z,20.48
2023-05-12T17:04:18.201Z,20.41
2023-05-12T17:06:45.269Z,20.30
2023-05-12T17:09:12.386Z,20.19
2023-05-12T17:11:39.404Z,20.07
2023-05-12T17:14:06.477Z,19.99
2023-05-12T17:16:33.586Z,19.88
2023-05-12T17:21:31.532Z,19.62
2023-05-12T17:23:58.615Z,19.51
2023-05-12T17:26:27.841Z,19.41
2023-05-12T17:28:55.643Z,19.32
2023-05-12T17:31:22.947Z,19.18
2023-05-12T17:33:50.107Z,19.42
2023-05-12T17:36:18.858Z,19.85
2023-05-12T17:38:46.432Z,19.98
2023-05-12T17:41:13.731Z,20.22
2023-05-12T17:43:41.568Z,20.29
2023-05-12T17:46:09.336Z,20.33
2023-05-12T17:48:36.763Z,20.47
2023-05-12T17:51:04.763Z,20.57
2023-05-12T17:53:32.845Z,20.81
2023-05-12T17:56:00.706Z,20.88
2023-05-12T17:58:28.011Z,20.77
2023-05-12T18:00:55.187Z,20.70
2023-05-12T18:03:27.107Z,20.74
2023-05-12T18:05:57.174Z,20.94
2023-05-12T18:08:24.070Z,20.76
2023-05-12T18:10:51.297Z,20.77
2023-05-12T18:13:18.446Z,20.87
2023-05-12T18:15:45.539Z,20.89
2023-05-12T18:18:14.617Z,20.81
2023-05-12T18:20:42.371Z,21.05
2023-05-12T18:23:09.530Z,21.05
2023-05-12T18:25:36.789Z,20.91
2023-05-12T18:28:03.982Z,20.66
2023-05-12T18:30:31.127Z,20.61
2023-05-12T18:32:58.233Z,20.67
2023-05-12T18:35:27.147Z,20.83
2023-05-12T18:37:54.659Z,20.71
2023-05-12T18:40:21.966Z,20.73
2023-05-12T18:42:49.230Z,20.41
2023-05-12T18:45:16.475Z,20.46
2023-05-12T18:47:43.892Z,20.43
2023-05-12T18:50:11.431Z,20.47
2023-05-12T18:52:38.518Z,20.67
2023-05-12T18:55:06.340Z,20.66
2023-05-12T18:57:34.066Z,20.65
2023-05-12T19:00:01.419Z,20.69
2023-05-12T19:02:35.571Z,20.64
2023-05-12T19:05:02.985Z,20.70
2023-05-12T19:07:32.410Z,20.66
2023-05-12T19:10:00.568Z,20.65
2023-05-12T19:12:27.719Z,20.56
2023-05-12T19:14:54.722Z,20.91
2023-05-12T19:17:22.257Z,21.26
2023-05-12T19:19:50.734Z,20.99
2023-05-12T19:22:18.065Z,20.80
2023-05-12T19:24:45.290Z,20.85
2023-05-12T19:27:12.405Z,20.88
2023-05-12T19:29:39.604Z,20.71
2023-05-12T19:32:07.212Z,20.57
2023-05-12T19:34:34.673Z,20.47
2023-05-12T19:37:02.037Z,20.27
2023-05-12T19:39:29.492Z,20.53
2023-05-12T19:41:56.566Z,20.80
2023-05-12T19:44:23.854Z,21.45
2023-05-12T19:46:51.787Z,21.91
2023-05-12T19:49:18.970Z,21.79
2023-05-12T19:51:46.290Z,21.97
2023-05-12T19:54:13.619Z,22.03
2023-05-12T19:56:42.951Z,21.72
2023-05-12T19:59:10.002Z,21.65
2023-05-12T20:01:37.091Z,21.35
2023-05-12T20:04:04.286Z,21.28
2023-05-12T20:06:31.318Z,21.19
2023-05-12T20:08:58.443Z,21.02
2023-05-12T20:11:25.774Z,20.97
2023-05-12T20:13:52.873Z,20.81
2023-05-12T20:16:19.937Z,20.69
2023-05-12T20:18:47.041Z,20.58
2023-05-12T20:21:14.088Z,20.38
2023-05-12T20:23:41.806Z,19.97
2023-05-12T20:26:10.117Z,19.97
2023-05-12T20:28:37.160Z,19.91
2023-05-12T20:31:04.290Z,19.30
2023-05-12T20:33:32.436Z,18.69
2023-05-12T20:35:59.339Z,18.27
2023-05-12T20:38:26.871Z,17.89
2023-05-12T20:40:54.199Z,18.01
2023-05-12T20:43:21.675Z,18.29
2023-05-12T20:45:48.961Z,17.95
2023-05-12T20:48:16.070Z,17.74
2023-05-12T20:50:43.991Z,17.44
2023-05-12T20:53:11.146Z,17.28
2023-05-12T20:55:43.110Z,17.02
2023-05-12T20:58:10.381Z,16.86
2023-05-12T21:00:37.401Z,16.67
2023-05-12T21:03:05.701Z,16.53
2023-05-12T21:05:33.407Z,16.38
2023-05-12T21:08:00.428Z,16.31
2023-05-12T21:10:27.451Z,16.21
2023-05-12T21:12:54.452Z,16.12
2023-05-12T21:15:21.519Z,16.06
2023-05-12T21:17:48.725Z,16.00
2023-05-12T21:20:15.750Z,15.90
2023-05-12T21:22:42.937Z,15.83
2023-05-12T21:25:10.460Z,15.73
2023-05-12T21:27:41.435Z,15.51
2023-05-12T21:30:10.281Z,15.70
2023-05-12T21:32:37.607Z,15.54
2023-05-12T21:35:05.083Z,15.51
2023-05-12T21:37:33.297Z,15.48
2023-05-12T21:40:00.611Z,15.39
2023-05-12T21:42:27.950Z,15.34
2023-05-12T21:44:55.210Z,15.21
2023-05-12T21:47:22.439Z,15.16
2023-05-12T21:49:55.113Z,14.93
2023-05-12T21:52:22.807Z,14.91
2023-05-12T21:54:49.941Z,14.80
2023-05-12T21:57:17.188Z,14.73
2023-05-12T21:59:44.862Z,14.58
2023-05-12T22:02:12.113Z,14.49
2023-05-12T22:04:39.425Z,14.43
2023-05-12T22:07:06.566Z,14.49
2023-05-12T22:09:33.740Z,14.53
2023-05-12T22:12:00.786Z,14.47
2023-05-12T22:14:27.784Z,14.43
2023-05-12T22:16:56.064Z,14.45
2023-05-12T22:19:23.776Z,14.35
2023-05-12T22:21:51.776Z,14.29
2023-05-12T22:24:18.891Z,14.24
2023-05-12T22:26:46.141Z,14.15
2023-05-12T22:29:13.191Z,14.10
2023-05-12T22:31:40.462Z,13.92
2023-05-12T22:34:07.904Z,13.91
2023-05-12T22:36:35.090Z,13.90
2023-05-12T22:39:02.400Z,13.77
2023-05-12T22:41:29.746Z,13.77
2023-05-12T22:43:57.644Z,13.68
2023-05-12T22:46:25.003Z,13.71
2023-05-12T22:48:52.800Z,13.65
2023-05-12T22:51:20.143Z,13.58
2023-05-12T22:53:47.238Z,13.52
2023-05-12T22:56:14.592Z,13.43
2023-05-12T22:58:41.735Z,13.21
2023-05-12T23:01:08.857Z,13.31
2023-05-12T23:03:36.326Z,13.26
2023-05-12T23:06:03.460Z,13.19
2023-05-12T23:08:30.616Z,13.12
2023-05-12T23:10:57.677Z,12.98
2023-05-12T23:13:24.948Z,12.96
2023-05-12T23:15:52.040Z,12.89
2023-05-12T23:18:37.585Z,12.91
2023-05-12T23:21:04.607Z,12.92
2023-05-12T23:23:33.248Z,12.86
2023-05-12T23:26:00.277Z,12.81
2023-05-12T23:28:27.354Z,12.72
2023-05-12T23:30:54.513Z,12.71
2023-05-12T23:33:21.764Z,12.70
2023-05-12T23:35:49.077Z,12.72
2023-05-12T23:38:16.466Z,12.63
2023-05-12T23:40:43.602Z,12.60
2023-05-12T23:43:10.633Z,12.50
2023-05-12T23:45:37.911Z,12.38
2023-05-12T23:48:05.314Z,12.38
2023-05-12T23:50:32.482Z,12.34
2023-05-12T23:52:59.489Z,12.36
2023-05-12T23:55:26.633Z,12.37
2023-05-12T23:57:53.724Z,12.25
